createdAt,value
2023-02-24T00:01:28.590Z,44.47
2023-02-24T00:05:02.273Z,44.60
2023-02-24T00:08:24.123Z,44.70
2023-02-24T00:11:49.238Z,44.70
2023-02-24T00:15:11.224Z,44.61
2023-02-24T00:18:33.611Z,44.61
2023-02-24T00:21:55.658Z,44.78
2023-02-24T00:25:27.128Z,44.85
2023-02-24T00:28:48.950Z,44.78
2023-02-24T00:32:13.631Z,44.83
2023-02-24T00:35:35.807Z,44.78
2023-02-24T00:39:00.314Z,44.62
2023-02-24T00:42:23.018Z,44.74
2023-02-24T00:45:56.661Z,44.58
2023-02-24T00:49:20.943Z,44.87
2023-02-24T00:52:43.315Z,45.02
2023-02-24T00:56:40.816Z,44.78
2023-02-24T01:00:39.371Z,44.85
2023-02-24T01:04:11.531Z,44.94
2023-02-24T01:07:33.664Z,44.93
2023-02-24T01:11:17.635Z,45.09
2023-02-24T01:14:39.895Z,45.01
2023-02-24T01:18:01.955Z,45.13
2023-02-24T01:25:02.671Z,45.14
2023-02-24T01:28:24.466Z,45.27
2023-02-24T01:31:48.651Z,45.18
2023-02-24T01:35:14.603Z,45.20
2023-02-24T01:38:37.107Z,45.15
2023-02-24T01:42:01.594Z,45.24
2023-02-24T01:45:29.100Z,45.12
2023-02-24T01:48:52.346Z,45.21
2023-02-24T01:52:21.003Z,45.26
2023-02-24T01:55:50.087Z,45.35
2023-02-24T01:59:24.655Z,45.27
2023-02-24T02:02:50.662Z,45.30
2023-02-24T02:06:17.806Z,45.27
2023-02-24T02:09:43.609Z,45.40
2023-02-24T02:13:08.804Z,45.45
2023-02-24T02:16:45.958Z,45.56
2023-02-24T02:20:42.819Z,45.53
2023-02-24T02:24:35.533Z,45.55
2023-02-24T02:28:20.651Z,45.72
2023-02-24T02:32:24.891Z,45.71
2023-02-24T02:35:54.575Z,45.94
2023-02-24T02:39:41.337Z,45.93
2023-02-24T02:43:26.792Z,46.08
2023-02-24T02:47:04.696Z,45.93
2023-02-24T02:50:43.302Z,45.98
2023-02-24T02:54:16.192Z,46.08
2023-02-24T02:57:47.294Z,46.08
2023-02-24T03:01:10.189Z,46.05
2023-02-24T03:04:32.153Z,46.20
2023-02-24T03:07:59.110Z,46.04
2023-02-24T03:11:21.379Z,46.16
2023-02-24T03:14:51.540Z,45.81
2023-02-24T03:18:30.025Z,46.03
2023-02-24T03:22:06.283Z,45.99
2023-02-24T03:25:46.637Z,46.03
2023-02-24T03:29:36.537Z,46.15
2023-02-24T03:33:09.949Z,46.21
2023-02-24T03:36:35.338Z,46.21
2023-02-24T03:40:14.883Z,46.25
2023-02-24T03:43:41.573Z,46.25
2023-02-24T03:47:03.641Z,46.29
2023-02-24T03:50:32.139Z,46.30
2023-02-24T03:54:14.574Z,46.53
2023-02-24T04:02:00.397Z,46.69
2023-02-24T04:05:30.825Z,46.60
2023-02-24T04:09:21.841Z,46.63
2023-02-24T04:13:07.566Z,46.66
2023-02-24T04:16:44.466Z,46.75
2023-02-24T04:20:20.642Z,46.99
2023-02-24T04:23:47.912Z,46.88
2023-02-24T04:27:12.139Z,46.93
2023-02-24T04:30:46.199Z,46.99
2023-02-24T04:34:39.511Z,47.11
2023-02-24T04:38:01.862Z,47.27
2023-02-24T04:41:28.007Z,47.37
2023-02-24T04:44:49.876Z,47.47
2023-02-24T04:48:15.013Z,47.50
2023-02-24T04:51:38.347Z,47.68
2023-02-24T04:55:00.140Z,47.79
2023-02-24T04:58:28.055Z,47.94
2023-02-24T05:02:01.385Z,48.07
2023-02-24T05:05:28.140Z,48.03
2023-02-24T05:08:55.664Z,48.19
2023-02-24T05:12:17.532Z,48.34
2023-02-24T05:15:41.849Z,48.48
2023-02-24T05:19:22.450Z,48.64
2023-02-24T05:22:44.286Z,48.74
2023-02-24T05:26:09.147Z,48.94
2023-02-24T05:29:34.230Z,48.82
2023-02-24T05:32:56.446Z,48.89
2023-02-24T05:36:19.501Z,49.12
2023-02-24T05:39:41.433Z,49.13
2023-02-24T05:43:18.854Z,49.28
2023-02-24T05:46:45.967Z,49.39
2023-02-24T05:50:09.417Z,49.46
2023-02-24T05:53:31.592Z,49.60
2023-02-24T05:56:53.453Z,49.54
2023-02-24T06:00:16.692Z,49.58
2023-02-24T06:03:38.564Z,49.55
2023-02-24T06:07:03.712Z,49.78
2023-02-24T06:10:25.832Z,49.68
2023-02-24T06:13:48.082Z,49.73
2023-02-24T06:17:11.975Z,49.66
2023-02-24T06:20:33.985Z,49.69
2023-02-24T06:23:57.713Z,49.88
2023-02-24T06:27:21.718Z,49.84
2023-02-24T06:30:43.866Z,49.79
2023-02-24T06:34:05.862Z,49.93
2023-02-24T06:37:28.334Z,49.94
2023-02-24T06:41:06.316Z,49.94
2023-02-24T06:44:28.123Z,49.85
2023-02-24T06:47:50.854Z,49.93
2023-02-24T06:51:26.835Z,49.95
2023-02-24T06:54:49.762Z,49.91
2023-02-24T06:58:16.580Z,50.02
2023-02-24T07:01:45.562Z,50.06
2023-02-24T07:05:14.560Z,50.08
2023-02-24T07:08:37.768Z,50.21
2023-02-24T07:12:02.699Z,50.03
2023-02-24T07:15:24.854Z,50.16
2023-02-24T07:19:02.755Z,49.99
2023-02-24T07:22:25.356Z,50.10
2023-02-24T07:25:47.424Z,50.07
2023-02-24T07:32:51.041Z,50.14
2023-02-24T07:36:15.087Z,50.17
2023-02-24T07:39:43.565Z,49.95
2023-02-24T07:43:06.635Z,50.11
2023-02-24T07:46:29.468Z,50.07
2023-02-24T07:49:51.333Z,50.05
2023-02-24T07:53:16.598Z,50.10
2023-02-24T07:56:46.128Z,50.10
2023-02-24T08:00:18.086Z,49.92
2023-02-24T08:03:41.546Z,49.68
2023-02-24T08:07:06.003Z,49.81
2023-02-24T08:10:31.256Z,49.88
2023-02-24T08:14:02.715Z,49.70
2023-02-24T08:17:26.780Z,49.97
2023-02-24T08:20:52.509Z,49.73
2023-02-24T08:24:18.283Z,49.95
2023-02-24T08:27:43.199Z,49.96
2023-02-24T08:31:05.858Z,49.82
2023-02-24T08:34:32.052Z,49.75
2023-02-24T08:37:54.917Z,49.93
2023-02-24T08:41:20.097Z,49.66
2023-02-24T08:44:44.583Z,49.72
2023-02-24T08:48:18.417Z,49.85
2023-02-24T08:51:44.142Z,49.73
2023-02-24T08:55:10.737Z,49.72
2023-02-24T08:58:32.697Z,49.67
2023-02-24T09:02:17.756Z,50.00
2023-02-24T09:05:39.776Z,49.64
2023-02-24T09:09:17.551Z,49.73
2023-02-24T09:12:42.344Z,49.71
2023-02-24T09:16:07.487Z,49.81
2023-02-24T09:19:51.594Z,49.92
2023-02-24T09:23:20.277Z,49.80
2023-02-24T09:26:43.825Z,49.86
2023-02-24T09:30:08.304Z,49.73
2023-02-24T09:33:40.311Z,49.80
2023-02-24T09:37:05.873Z,49.76
2023-02-24T09:40:49.008Z,49.81
2023-02-24T09:44:21.715Z,49.73
2023-02-24T09:47:54.968Z,49.55
2023-02-24T09:51:25.763Z,49.65
2023-02-24T09:55:13.608Z,49.65
2023-02-24T09:58:43.739Z,49.86
2023-02-24T10:02:15.566Z,49.76
2023-02-24T10:05:48.494Z,49.64
2023-02-24T10:09:14.349Z,49.70
2023-02-24T10:12:40.229Z,49.68
2023-02-24T10:16:07.824Z,49.72
2023-02-24T10:19:31.196Z,49.81
2023-02-24T10:23:09.833Z,49.90
2023-02-24T10:27:00.755Z,49.97
2023-02-24T10:30:47.231Z,50.07
2023-02-24T10:34:13.580Z,49.90
2023-02-24T10:37:35.710Z,49.78
2023-02-24T10:40:57.777Z,49.82
2023-02-24T10:44:24.323Z,49.88
2023-02-24T10:47:57.799Z,49.83
2023-02-24T10:51:22.373Z,49.70
2023-02-24T10:55:05.207Z,49.71
2023-02-24T10:58:57.369Z,49.56
2023-02-24T11:02:30.252Z,49.74
2023-02-24T11:06:18.957Z,49.62
2023-02-24T11:09:49.624Z,49.63
2023-02-24T11:13:34.939Z,49.67
2023-02-24T11:17:16.381Z,49.67
2023-02-24T11:20:49.929Z,49.57
2023-02-24T11:24:17.085Z,49.60
2023-02-24T11:27:42.022Z,49.63
2023-02-24T11:31:45.308Z,49.69
2023-02-24T11:35:17.775Z,49.43
2023-02-24T11:38:47.029Z,49.54
2023-02-24T11:42:13.723Z,49.51
2023-02-24T11:46:34.671Z,49.54
2023-02-24T11:50:24.678Z,49.55
2023-02-24T11:54:11.741Z,49.77
2023-02-24T11:57:43.794Z,49.87
2023-02-24T12:01:48.648Z,49.76
2023-02-24T12:05:22.310Z,49.70
2023-02-24T12:08:48.235Z,49.55
2023-02-24T12:12:16.295Z,49.41
2023-02-24T12:15:56.751Z,49.35
2023-02-24T12:19:31.389Z,49.30
2023-02-24T12:22:59.374Z,49.15
2023-02-24T12:26:49.388Z,48.99
2023-02-24T12:30:38.853Z,48.87
2023-02-24T12:34:08.651Z,48.99
2023-02-24T12:38:21.842Z,48.91
2023-02-24T12:42:18.669Z,48.85
2023-02-24T12:45:43.668Z,48.53
2023-02-24T12:49:18.062Z,48.51
2023-02-24T12:52:49.759Z,48.43
2023-02-24T12:56:25.728Z,48.34
2023-02-24T12:59:47.891Z,48.20
2023-02-24T13:03:21.630Z,48.17
2023-02-24T13:07:02.492Z,47.98
2023-02-24T13:10:36.686Z,48.04
2023-02-24T13:14:04.681Z,47.78
2023-02-24T13:17:27.431Z,47.95
2023-02-24T13:20:50.812Z,47.94
2023-02-24T13:24:24.043Z,47.98
2023-02-24T13:27:56.072Z,51.10
2023-02-24T13:31:18.281Z,51.28
2023-02-24T13:34:45.022Z,51.02
2023-02-24T13:38:24.689Z,51.14
2023-02-24T13:41:46.761Z,51.13
2023-02-24T13:45:09.577Z,51.08
2023-02-24T13:48:39.940Z,51.02
2023-02-24T13:52:25.071Z,50.93
2023-02-24T13:56:09.995Z,50.57
2023-02-24T14:00:11.550Z,50.31
2023-02-24T14:03:42.478Z,50.10
2023-02-24T14:07:13.256Z,50.06
2023-02-24T14:10:39.202Z,49.91
2023-02-24T14:14:01.006Z,49.79
2023-02-24T14:17:36.288Z,49.64
2023-02-24T14:20:58.543Z,49.55
2023-02-24T14:24:25.123Z,49.48
2023-02-24T14:27:50.080Z,49.19
2023-02-24T14:31:13.450Z,48.99
2023-02-24T14:34:35.318Z,48.93
2023-02-24T14:37:57.949Z,48.84
2023-02-24T14:41:23.628Z,48.75
2023-02-24T14:44:49.389Z,50.38
2023-02-24T14:48:23.171Z,50.92
2023-02-24T14:51:45.611Z,50.94
2023-02-24T14:55:26.691Z,50.83
2023-02-24T14:58:51.384Z,50.84
2023-02-24T15:02:19.633Z,50.81
2023-02-24T15:05:44.611Z,50.84
2023-02-24T15:09:08.104Z,50.89
2023-02-24T15:12:46.173Z,50.84
2023-02-24T15:16:28.858Z,50.28
2023-02-24T15:19:54.716Z,50.01
2023-02-24T15:23:32.864Z,50.27
2023-02-24T15:26:56.675Z,50.47
2023-02-24T15:30:30.665Z,50.55
2023-02-24T15:33:58.016Z,50.92
2023-02-24T15:37:24.752Z,51.11
2023-02-24T15:40:52.916Z,51.50
2023-02-24T15:44:28.174Z,51.64
2023-02-24T15:47:53.738Z,51.79
2023-02-24T15:51:20.840Z,51.87
2023-02-24T15:54:45.866Z,51.84
2023-02-24T15:58:11.780Z,52.25
2023-02-24T16:01:33.677Z,53.29
2023-02-24T16:04:55.403Z,54.05
2023-02-24T16:08:18.524Z,54.71
2023-02-24T16:11:41.089Z,55.84
2023-02-24T16:15:04.294Z,55.71
2023-02-24T16:18:25.952Z,56.82
2023-02-24T16:21:49.772Z,57.43
2023-02-24T16:25:15.367Z,57.54
2023-02-24T16:28:37.164Z,57.75
2023-02-24T16:31:59.106Z,58.27
2023-02-24T16:35:25.900Z,58.52
2023-02-24T16:38:50.856Z,58.65
2023-02-24T16:42:12.909Z,58.38
2023-02-24T16:45:40.268Z,58.24
2023-02-24T16:49:02.771Z,58.16
2023-02-24T16:52:25.895Z,58.11
2023-02-24T16:55:47.675Z,58.03
2023-02-24T16:59:09.467Z,58.08
2023-02-24T17:02:33.625Z,57.92
2023-02-24T17:05:56.256Z,57.90
2023-02-24T17:09:20.518Z,57.77
2023-02-24T17:13:03.588Z,57.37
2023-02-24T17:16:28.073Z,56.98
2023-02-24T17:19:57.528Z,56.83
2023-02-24T17:23:26.018Z,56.88
2023-02-24T17:26:50.682Z,56.82
2023-02-24T17:30:21.683Z,56.59
2023-02-24T17:34:01.175Z,56.49
2023-02-24T17:37:26.578Z,56.37
2023-02-24T17:41:00.152Z,56.22
2023-02-24T17:44:34.439Z,56.11
2023-02-24T17:47:59.485Z,56.04
2023-02-24T17:51:30.810Z,55.84
2023-02-24T17:54:57.172Z,55.76
2023-02-24T17:58:25.417Z,55.47
2023-02-24T18:02:04.087Z,55.49
2023-02-24T18:05:50.892Z,55.37
2023-02-24T18:09:30.142Z,55.19
2023-02-24T18:13:00.858Z,55.07
2023-02-24T18:16:35.593Z,54.95
2023-02-24T18:20:03.241Z,54.84
2023-02-24T18:23:26.493Z,54.67
2023-02-24T18:26:51.976Z,54.53
2023-02-24T18:30:18.959Z,54.57
2023-02-24T18:33:44.675Z,54.43
2023-02-24T18:37:09.273Z,54.30
2023-02-24T18:40:32.231Z,54.28
2023-02-24T18:43:55.121Z,54.22
2023-02-24T18:47:16.808Z,54.08
2023-02-24T18:50:38.572Z,53.99
2023-02-24T18:54:12.749Z,54.00
2023-02-24T18:57:37.143Z,53.76
2023-02-24T19:01:03.987Z,53.74
2023-02-24T19:04:26.911Z,53.64
2023-02-24T19:07:50.589Z,53.58
2023-02-24T19:11:15.095Z,53.67
2023-02-24T19:14:37.686Z,53.41
2023-02-24T19:18:05.076Z,53.38
2023-02-24T19:21:33.634Z,53.37
2023-02-24T19:25:15.945Z,53.31
2023-02-24T19:28:56.837Z,53.32
2023-02-24T19:32:46.977Z,53.39
2023-02-24T19:36:17.443Z,53.40
2023-02-24T19:40:02.909Z,53.37
2023-02-24T19:43:34.772Z,53.25
2023-02-24T19:46:56.643Z,53.31
2023-02-24T19:50:21.430Z,53.31
2023-02-24T20:04:16.282Z,53.04
2023-02-24T20:07:38.947Z,52.89
2023-02-24T20:11:09.741Z,52.81
2023-02-24T20:14:31.650Z,52.81
2023-02-24T20:17:53.477Z,52.72
2023-02-24T20:21:15.276Z,52.49
2023-02-24T20:24:37.225Z,52.60
2023-02-24T20:28:00.482Z,52.46
2023-02-24T20:31:24.358Z,52.45
2023-02-24T20:34:46.289Z,52.47
2023-02-24T20:38:08.044Z,52.39
2023-02-24T20:41:33.476Z,52.53
2023-02-24T20:44:57.373Z,52.36
2023-02-24T20:48:20.649Z,52.42
2023-02-24T20:51:45.894Z,52.27
2023-02-24T20:55:12.641Z,52.26
2023-02-24T20:58:46.358Z,52.29
2023-02-24T21:02:09.417Z,52.36
2023-02-24T21:05:42.296Z,52.20
2023-02-24T21:09:09.571Z,52.22
2023-02-24T21:12:31.448Z,52.13
2023-02-24T21:16:06.844Z,52.16
2023-02-24T21:19:40.479Z,52.25
2023-02-24T21:23:07.534Z,52.23
2023-02-24T21:26:30.172Z,52.09
2023-02-24T21:29:58.449Z,52.11
2023-02-24T21:33:20.886Z,51.95
2023-02-24T21:36:53.945Z,51.99
2023-02-24T21:40:17.856Z,52.16
2023-02-24T21:43:39.609Z,52.03
2023-02-24T21:47:01.313Z,52.05
2023-02-24T21:50:23.757Z,52.09
2023-02-24T21:53:49.360Z,52.02
2023-02-24T21:57:11.086Z,52.08
2023-02-24T22:00:34.345Z,51.92
2023-02-24T22:03:58.017Z,51.87
2023-02-24T22:07:19.856Z,51.89
2023-02-24T22:10:41.685Z,51.84
2023-02-24T22:14:03.952Z,51.84
2023-02-24T22:17:27.903Z,51.83
2023-02-24T22:20:49.505Z,51.73
2023-02-24T22:24:15.041Z,51.95
2023-02-24T22:27:38.050Z,51.83
2023-02-24T22:31:02.016Z,51.64
2023-02-24T22:34:26.188Z,51.66
2023-02-24T22:37:53.895Z,51.56
2023-02-24T22:41:19.310Z,51.70
2023-02-24T22:44:44.477Z,51.85
2023-02-24T22:48:16.425Z,51.68
2023-02-24T22:51:40.590Z,51.72
2023-02-24T22:55:11.981Z,51.62
2023-02-24T22:58:33.953Z,51.51
2023-02-24T23:02:11.710Z,51.63
2023-02-24T23:05:39.748Z,51.71
2023-02-24T23:09:01.815Z,51.66
2023-02-24T23:12:23.981Z,51.71
2023-02-24T23:15:52.497Z,51.85
2023-02-24T23:19:19.569Z,51.70
2023-02-24T23:22:53.187Z,51.48
2023-02-24T23:26:15.439Z,51.81
2023-02-24T23:29:47.494Z,51.70
2023-02-24T23:33:13.047Z,51.62
2023-02-24T23:36:36.004Z,51.58
2023-02-24T23:40:01.629Z,51.67
2023-02-24T23:44:03.806Z,51.68
2023-02-24T23:47:56.022Z,51.70
2023-02-24T23:51:20.605Z,51.68
2023-02-24T23:54:44.861Z,51.61
2023-02-24T23:58:09.769Z,51.71
